Hovedside
METAR-TAF:

METAR-TAF

Lufthavner :

Svolvær lufthavn. Helle

Svolvær, Norge

breddegrad: 68-15N, lengdegrad: 014-40E, høyde over havet: 0 m

Gjeldene værobservasjon

Denne rapporten ble laget for 52 minutter siden, klokken 14:50 UTC
Vind 11 kt fra Sør-sørvest, skiftende mellom Sør og Vest-sørvest
Temperatur 4°C
Luftfuktighet 87%
Trykk 1031 hPa
Sikt 10 km eller mer
regnbyger

METAR: ENSH 181450Z 20011KT 170V250 9999 SHRA VV016 04/02 Q1031 RMK WIND 150FT 18015KT

Tid: 17:42 (15:42 UTC)

Varsel

Denne rapporten ble laget for 1 time og 42 minutter siden, klokken 14:00 UTC
Varsel gyldig fra 18. klokken 15 UTC til 18. klokken 21 UTC
Vind 8 kt fra Sør
Sikt 10 km eller mer
Få skyer i en høyde av 1000 ft
Spredte skyer i en høyde av 1500 ft
Sannsynlighet 40% :
Midlertidig
fra 18. klokken 15 UTC til 18. klokken 17 UTC
Spredte skyer i en høyde av 800 ft
Brutte skyer i en høyde av 1400 ft, Bygeskyer.
regnbyger

TAF: ENSH 181400Z 1815/1821 18008KT 9999 FEW010 SCT015 PROB40 TEMPO 1815/1817 SHRA SCT008 BKN014CB

Værobservasjoner og værvarsel for over 4000 flyplasser (METAR- og TAF-rapporter).

Tilgjengelige stasjoner er representert av de røde og gule prikkene på kartet.

Hold musepekeren over prikken for å se navnet på stasjonen.

Klikk så for å se værobservasjoner og -varsler.

For å forandre kartet kan du klikke på den grønne knappen med svart kryss for å zoome inn, på den grønne knappen med strek for å zoome ut, eller på de grønne pilene for å se tilstøtende kart.


METAR-TAF: